Terminal Aerodrome Forecast
Issued by NWS Jacksonville, FL

Home | Current Version | Previous Version | Text Only | Print | Product List | Glossary On
Versions: 1 2 3 4 5 6 7 8 9 10 11 12 13 14 15 16 17 18 19 20 21 22 23 24
000
FTUS42 KJAX 251720
TAFGNV
TAF
KGNV 251720Z 2518/2618 21008KT P6SM BKN040
     FM260000 20004KT P6SM FEW040
     FM260700 VRB02KT 3SM BR SCT002
     FM260900 00000KT 1SM BR BKN002
     FM261100 00000KT 1/4SM FG OVC001
     FM261330 00000KT 2SM BR BKN007
     FM261430 20005KT P6SM SCT015 BKN250=

USA.gov is the U.S. government's official web portal to all federal, state and local government web resources and services.